createdAt,value
2023-01-29T00:01:18.552Z,-3.18
2023-01-29T00:03:45.117Z,-3.25
2023-01-29T00:06:13.158Z,-3.95
2023-01-29T00:08:39.973Z,-3.33
2023-01-29T00:11:06.956Z,-3.38
2023-01-29T00:13:34.702Z,-3.36
2023-01-29T00:16:01.731Z,-3.39
2023-01-29T00:18:29.222Z,-3.57
2023-01-29T00:20:55.883Z,-3.60
2023-01-29T00:23:22.467Z,-3.65
2023-01-29T00:25:49.089Z,-3.63
2023-01-29T00:28:15.740Z,-3.52
2023-01-29T00:30:42.593Z,-3.57
2023-01-29T00:33:09.198Z,-3.61
2023-01-29T00:35:35.714Z,-3.66
2023-01-29T00:38:02.222Z,-3.68
2023-01-29T00:40:28.723Z,-3.67
2023-01-29T00:43:13.952Z,-3.62
2023-01-29T00:45:40.519Z,-3.58
2023-01-29T00:48:07.330Z,-3.59
2023-01-29T00:50:34.102Z,-3.65
2023-01-29T00:53:00.660Z,-3.75
2023-01-29T00:55:27.267Z,-3.76
2023-01-29T00:57:53.860Z,-3.82
2023-01-29T01:00:20.600Z,-3.88
2023-01-29T01:03:05.702Z,-3.92
2023-01-29T01:05:32.253Z,-3.97
2023-01-29T01:07:58.827Z,-3.90
2023-01-29T01:10:32.151Z,-3.86
2023-01-29T01:12:59.475Z,-3.90
2023-01-29T01:15:27.146Z,-3.97
2023-01-29T01:17:54.296Z,-3.93
2023-01-29T01:20:20.800Z,-3.94
2023-01-29T01:22:47.390Z,-3.91
2023-01-29T01:25:13.934Z,-3.99
2023-01-29T01:27:41.220Z,-4.04
2023-01-29T01:30:09.298Z,-4.02
2023-01-29T01:32:35.782Z,-4.10
2023-01-29T01:35:02.227Z,-4.11
2023-01-29T01:37:28.677Z,-4.10
2023-01-29T01:39:57.903Z,-4.10
2023-01-29T01:42:30.605Z,-4.08
2023-01-29T01:45:01.409Z,-4.08
2023-01-29T01:47:27.904Z,-4.08
2023-01-29T01:49:54.771Z,-3.96
2023-01-29T01:52:21.285Z,-4.03
2023-01-29T01:54:47.854Z,-4.07
2023-01-29T01:57:18.347Z,-4.12
2023-01-29T01:59:48.898Z,-4.14
2023-01-29T02:02:34.479Z,-4.11
2023-01-29T02:05:19.743Z,-4.16
2023-01-29T02:08:05.012Z,-4.21
2023-01-29T02:10:32.220Z,-4.21
2023-01-29T02:12:58.677Z,-4.19
2023-01-29T02:15:25.187Z,-4.09
2023-01-29T02:17:51.682Z,-3.94
2023-01-29T02:20:19.197Z,-3.94
2023-01-29T02:23:02.635Z,-3.99
2023-01-29T02:25:36.906Z,-4.03
2023-01-29T02:28:03.355Z,-3.98
2023-01-29T02:30:34.102Z,-3.92
2023-01-29T02:36:35.094Z,-3.91
2023-01-29T02:39:09.069Z,-3.93
2023-01-29T02:41:46.442Z,-3.99
2023-01-29T02:44:15.980Z,-4.05
2023-01-29T02:46:45.498Z,-4.07
2023-01-29T02:49:35.362Z,-4.12
2023-01-29T02:55:30.021Z,-3.98
2023-01-29T02:57:58.264Z,-3.95
2023-01-29T03:00:27.718Z,-3.96
2023-01-29T03:06:27.513Z,-3.97
2023-01-29T03:12:36.833Z,-3.97
2023-01-29T03:18:38.081Z,-3.86
2023-01-29T03:24:54.668Z,-3.87
2023-01-29T03:44:56.035Z,-3.79
2023-01-29T03:47:22.506Z,-3.82
2023-01-29T03:49:54.993Z,-3.82
2023-01-29T03:52:27.350Z,-3.80
2023-01-29T03:55:06.793Z,-3.81
2023-01-29T03:57:38.497Z,-3.85
2023-01-29T04:00:08.219Z,-3.87
2023-01-29T04:02:36.085Z,-3.94
2023-01-29T04:05:05.093Z,-3.98
2023-01-29T04:07:33.543Z,-3.99
2023-01-29T04:10:00.094Z,-4.08
2023-01-29T04:12:27.244Z,-4.08
2023-01-29T04:14:53.734Z,-4.07
2023-01-29T04:17:22.219Z,-4.07
2023-01-29T04:19:48.690Z,-4.07
2023-01-29T04:22:35.430Z,-4.09
2023-01-29T04:25:08.499Z,-4.17
2023-01-29T04:27:47.206Z,-4.24
2023-01-29T04:30:13.790Z,-4.27
2023-01-29T04:32:56.069Z,-4.27
2023-01-29T04:35:31.312Z,-4.28
2023-01-29T04:38:07.489Z,-4.25
2023-01-29T04:40:37.726Z,-4.21
2023-01-29T04:43:05.154Z,-4.15
2023-01-29T04:45:34.591Z,-4.16
2023-01-29T04:48:26.011Z,-4.14
2023-01-29T04:50:58.652Z,-4.11
2023-01-29T04:53:25.029Z,-4.08
2023-01-29T04:55:52.751Z,-4.03
2023-01-29T04:58:19.157Z,-3.98
2023-01-29T05:00:46.345Z,-3.93
2023-01-29T05:03:14.051Z,-3.85
2023-01-29T05:05:41.199Z,-3.79
2023-01-29T05:08:08.008Z,-3.75
2023-01-29T05:10:34.550Z,-3.78
2023-01-29T05:13:01.713Z,-3.81
2023-01-29T05:15:30.514Z,-3.88
2023-01-29T05:18:01.864Z,-3.94
2023-01-29T05:20:29.295Z,-3.95
2023-01-29T05:22:55.913Z,-3.92
2023-01-29T05:25:23.711Z,-3.89
2023-01-29T05:28:16.397Z,-3.82
2023-01-29T05:30:47.506Z,-3.80
2023-01-29T05:33:17.735Z,-3.80
2023-01-29T05:35:44.304Z,-3.78
2023-01-29T05:38:10.809Z,-3.78
2023-01-29T05:40:37.383Z,-3.76
2023-01-29T05:43:04.478Z,-3.74
2023-01-29T05:45:30.974Z,-3.70
2023-01-29T05:47:58.079Z,-3.68
2023-01-29T05:50:24.644Z,-3.62
2023-01-29T05:52:55.898Z,-3.63
2023-01-29T05:55:22.358Z,-3.58
2023-01-29T05:57:48.847Z,-3.56
2023-01-29T06:00:15.880Z,-3.57
2023-01-29T06:02:42.538Z,-3.58
2023-01-29T06:05:09.213Z,-3.59
2023-01-29T06:07:36.169Z,-3.57
2023-01-29T06:10:03.221Z,-3.60
2023-01-29T06:12:29.685Z,-3.66
2023-01-29T06:14:56.248Z,-3.71
2023-01-29T06:17:22.676Z,-3.73
2023-01-29T06:19:49.109Z,-3.74
2023-01-29T06:22:15.559Z,-3.72
2023-01-29T06:24:41.987Z,-3.76
2023-01-29T06:27:08.488Z,-3.77
2023-01-29T06:29:35.175Z,-3.77
2023-01-29T06:32:01.702Z,-3.73
2023-01-29T06:34:28.274Z,-3.76
2023-01-29T06:36:54.752Z,-3.75
2023-01-29T06:39:21.287Z,-3.80
2023-01-29T06:41:47.906Z,-3.85
2023-01-29T06:44:14.399Z,-3.86
2023-01-29T06:46:40.986Z,-3.83
2023-01-29T06:49:07.461Z,-3.80
2023-01-29T06:51:33.982Z,-3.79
2023-01-29T06:54:00.637Z,-3.78
2023-01-29T06:56:27.140Z,-3.79
2023-01-29T06:58:53.601Z,-3.80
2023-01-29T07:01:34.508Z,-3.84
2023-01-29T07:04:01.900Z,-3.85
2023-01-29T07:06:28.930Z,-3.82
2023-01-29T07:08:55.491Z,-3.78
2023-01-29T07:11:21.960Z,-3.74
2023-01-29T07:13:49.113Z,-3.70
2023-01-29T07:16:15.807Z,-3.64
2023-01-29T07:18:42.357Z,-3.61
2023-01-29T07:21:09.013Z,-3.57
2023-01-29T07:23:36.206Z,-3.53
2023-01-29T07:26:04.040Z,-3.48
2023-01-29T07:28:31.240Z,-3.46
2023-01-29T07:30:58.909Z,-3.49
2023-01-29T07:33:26.357Z,-3.50
2023-01-29T07:35:53.672Z,-3.45
2023-01-29T07:38:20.945Z,-3.47
2023-01-29T07:40:48.775Z,-3.47
2023-01-29T07:43:16.650Z,-3.47
2023-01-29T07:45:43.276Z,-3.45
2023-01-29T07:48:11.877Z,-3.40
2023-01-29T07:50:39.137Z,-3.46
2023-01-29T07:53:07.544Z,-3.53
2023-01-29T07:55:34.918Z,-3.48
2023-01-29T07:58:02.699Z,-3.43
2023-01-29T08:00:30.335Z,-3.46
2023-01-29T08:03:05.620Z,-3.56
2023-01-29T08:05:32.851Z,-3.60
2023-01-29T08:08:07.007Z,-3.62
2023-01-29T08:10:35.925Z,-3.61
2023-01-29T08:13:03.338Z,-3.62
2023-01-29T08:15:32.257Z,-3.60
2023-01-29T08:18:01.024Z,-3.53
2023-01-29T08:20:30.248Z,-3.43
2023-01-29T08:23:05.253Z,-3.41
2023-01-29T08:25:32.828Z,-3.38
2023-01-29T08:28:02.212Z,-3.38
2023-01-29T08:30:30.566Z,-3.37
2023-01-29T08:32:59.033Z,-3.39
2023-01-29T08:35:26.836Z,-3.40
2023-01-29T08:37:55.975Z,-3.34
2023-01-29T08:40:23.268Z,-3.33
2023-01-29T08:42:51.231Z,-3.29
2023-01-29T08:45:20.104Z,-3.32
2023-01-29T08:47:47.829Z,-3.31
2023-01-29T08:50:15.931Z,-3.23
2023-01-29T08:52:43.804Z,-3.25
2023-01-29T08:55:11.392Z,-3.26
2023-01-29T08:57:39.371Z,-3.24
2023-01-29T09:00:11.269Z,-3.28
2023-01-29T09:02:38.622Z,-3.28
2023-01-29T09:05:06.450Z,-3.33
2023-01-29T09:07:33.706Z,-3.37
2023-01-29T09:10:01.628Z,-3.37
2023-01-29T09:12:28.926Z,-3.33
2023-01-29T09:14:56.206Z,-3.31
2023-01-29T09:17:23.579Z,-3.19
2023-01-29T09:19:52.724Z,-3.16
2023-01-29T09:22:22.206Z,-3.07
2023-01-29T09:24:54.245Z,-3.13
2023-01-29T09:27:21.612Z,-3.24
2023-01-29T09:29:48.931Z,-3.22
2023-01-29T09:32:23.225Z,-3.22
2023-01-29T09:34:59.175Z,-3.24
2023-01-29T09:37:26.745Z,-3.15
2023-01-29T09:39:55.952Z,-3.13
2023-01-29T09:42:32.149Z,-3.03
2023-01-29T09:45:06.886Z,-2.97
2023-01-29T09:47:34.874Z,-2.97
2023-01-29T09:50:20.140Z,-2.85
2023-01-29T09:52:50.353Z,-2.76
2023-01-29T09:55:44.108Z,-2.66
2023-01-29T09:58:19.656Z,-2.54
2023-01-29T10:00:50.103Z,-2.34
2023-01-29T10:03:17.424Z,-2.24
2023-01-29T10:05:47.999Z,-2.08
2023-01-29T10:08:15.379Z,-1.95
2023-01-29T10:10:58.822Z,-1.80
2023-01-29T10:13:27.157Z,-1.65
2023-01-29T10:16:00.544Z,-1.59
2023-01-29T10:18:37.751Z,-1.57
2023-01-29T10:21:06.024Z,-1.59
2023-01-29T10:23:34.702Z,-1.64
2023-01-29T10:26:04.103Z,-1.65
2023-01-29T10:28:47.281Z,-1.61
2023-01-29T10:31:19.900Z,-1.61
2023-01-29T10:34:01.515Z,-1.60
2023-01-29T10:36:35.264Z,-1.51
2023-01-29T10:39:02.591Z,-1.52
2023-01-29T10:41:48.597Z,-1.48
2023-01-29T10:44:19.030Z,-1.53
2023-01-29T10:46:52.162Z,-1.51
2023-01-29T10:49:20.423Z,-1.52
2023-01-29T10:52:06.349Z,-1.62
2023-01-29T10:54:44.094Z,-1.68
2023-01-29T10:57:13.796Z,-1.68
2023-01-29T10:59:48.470Z,-1.57
2023-01-29T11:02:18.900Z,-1.53
2023-01-29T11:04:48.703Z,-1.51
2023-01-29T11:07:16.091Z,-1.48
2023-01-29T11:09:43.389Z,-1.51
2023-01-29T11:12:17.050Z,-1.55
2023-01-29T11:14:54.100Z,-1.52
2023-01-29T11:17:21.736Z,-1.47
2023-01-29T11:19:48.785Z,-1.43
2023-01-29T11:22:16.545Z,-1.38
2023-01-29T11:24:43.393Z,-1.36
2023-01-29T11:27:23.373Z,-1.34
2023-01-29T11:29:49.926Z,-1.32
2023-01-29T11:32:19.364Z,-1.25
2023-01-29T11:34:58.016Z,-1.18
2023-01-29T11:37:24.494Z,-1.09
2023-01-29T11:39:51.409Z,-1.05
2023-01-29T11:42:21.483Z,-1.01
2023-01-29T11:44:47.953Z,-0.99
2023-01-29T11:47:14.470Z,-1.04
2023-01-29T11:49:41.482Z,-1.01
2023-01-29T11:52:08.827Z,-1.04
2023-01-29T11:54:39.754Z,-0.96
2023-01-29T11:57:06.420Z,-0.88
2023-01-29T11:59:49.027Z,-0.69
2023-01-29T12:02:21.685Z,-0.58
2023-01-29T12:04:48.652Z,-0.51
2023-01-29T12:07:16.559Z,-0.49
2023-01-29T12:09:49.253Z,-0.54
2023-01-29T12:12:21.716Z,-0.50
2023-01-29T12:14:49.006Z,-0.55
2023-01-29T12:17:20.095Z,-0.61
2023-01-29T12:19:53.978Z,-0.59
2023-01-29T12:22:35.578Z,-0.49
2023-01-29T12:25:20.072Z,-0.29
2023-01-29T12:27:56.514Z,-0.21
2023-01-29T12:30:32.867Z,-0.15
2023-01-29T12:33:13.356Z,-0.10
2023-01-29T12:35:51.414Z,-0.01
2023-01-29T12:38:23.713Z,-0.02
2023-01-29T12:41:14.798Z,-0.03
2023-01-29T12:44:04.475Z,-0.13
2023-01-29T12:53:30.928Z,-0.30
2023-01-29T12:56:00.560Z,-0.35
2023-01-29T12:58:30.828Z,-0.42
2023-01-29T13:00:59.463Z,-0.44
2023-01-29T13:03:46.231Z,-0.48
2023-01-29T13:06:14.819Z,-0.44
2023-01-29T13:08:55.204Z,-0.46
2023-01-29T13:11:25.592Z,-0.38
2023-01-29T13:13:54.618Z,-0.34
2023-01-29T13:16:28.312Z,-0.33
2023-01-29T13:18:56.145Z,-0.34
2023-01-29T13:21:27.437Z,-0.38
2023-01-29T13:24:15.133Z,-0.42
2023-01-29T13:26:44.534Z,-0.47
2023-01-29T13:29:21.735Z,-0.51
2023-01-29T13:31:48.257Z,-0.59
2023-01-29T13:34:15.780Z,-0.62
2023-01-29T13:36:46.041Z,-0.63
2023-01-29T13:39:31.462Z,-0.68
2023-01-29T13:41:58.353Z,-0.74
2023-01-29T13:44:34.559Z,-0.75
2023-01-29T13:47:02.328Z,-0.85
2023-01-29T13:49:28.813Z,-0.91
2023-01-29T13:51:55.395Z,-0.97
2023-01-29T13:54:23.185Z,-1.03
2023-01-29T13:57:00.174Z,-1.15
2023-01-29T13:59:45.033Z,-1.24
2023-01-29T14:02:41.007Z,-1.27
2023-01-29T14:05:27.782Z,-1.28
2023-01-29T14:07:54.416Z,-1.29
2023-01-29T14:10:21.411Z,-1.35
2023-01-29T14:12:48.781Z,-1.33
2023-01-29T14:15:19.020Z,-1.36
2023-01-29T14:18:06.017Z,-1.43
2023-01-29T14:20:45.983Z,-1.47
2023-01-29T14:23:28.148Z,-1.44
2023-01-29T14:25:54.782Z,-1.54
2023-01-29T14:28:22.933Z,-1.56
2023-01-29T14:30:49.642Z,-1.58
2023-01-29T14:33:23.879Z,-1.54
2023-01-29T14:35:52.422Z,-1.62
2023-01-29T14:38:19.051Z,-1.71
2023-01-29T14:40:46.137Z,-1.70
2023-01-29T14:43:21.939Z,-1.72
2023-01-29T14:45:48.691Z,-1.77
2023-01-29T14:48:33.950Z,-1.82
2023-01-29T14:51:05.683Z,-1.92
2023-01-29T14:53:46.008Z,-1.99
2023-01-29T14:56:17.385Z,-2.03
2023-01-29T14:58:56.133Z,-2.07
2023-01-29T15:01:26.434Z,-2.08
2023-01-29T15:04:13.235Z,-2.12
2023-01-29T15:06:46.821Z,-2.20
2023-01-29T15:09:36.692Z,-2.25
2023-01-29T15:12:24.480Z,-2.27
2023-01-29T15:14:59.993Z,-3.08
2023-01-29T15:17:46.864Z,-2.37
2023-01-29T15:20:33.821Z,-2.43
2023-01-29T15:23:01.134Z,-2.48
2023-01-29T15:25:28.270Z,-2.58
2023-01-29T15:27:54.999Z,-2.62
2023-01-29T15:30:26.568Z,-2.67
2023-01-29T15:32:53.185Z,-2.74
2023-01-29T15:35:35.826Z,-2.80
2023-01-29T15:38:03.632Z,-2.87
2023-01-29T15:40:30.228Z,-2.93
2023-01-29T15:42:56.797Z,-3.01
2023-01-29T15:45:23.367Z,-3.06
2023-01-29T15:47:49.889Z,-3.11
2023-01-29T15:50:16.413Z,-3.17
2023-01-29T15:52:42.916Z,-3.24
2023-01-29T15:55:10.666Z,-3.29
2023-01-29T15:57:38.378Z,-3.53
2023-01-29T16:00:05.082Z,-3.75
2023-01-29T16:02:34.640Z,-3.91
2023-01-29T16:05:01.250Z,-4.21
2023-01-29T16:07:28.821Z,-4.43
2023-01-29T16:09:55.341Z,-4.61
2023-01-29T16:15:57.412Z,-4.91
2023-01-29T16:18:35.965Z,-4.95
2023-01-29T16:21:14.549Z,-5.07
2023-01-29T16:23:44.566Z,-5.14
2023-01-29T16:26:20.735Z,-5.17
2023-01-29T16:28:47.254Z,-5.20
2023-01-29T16:31:14.651Z,-5.18
2023-01-29T16:33:42.237Z,-5.14
2023-01-29T16:36:46.191Z,-5.08
2023-01-29T16:39:19.473Z,-5.00
2023-01-29T16:41:45.965Z,-4.93
2023-01-29T16:44:15.489Z,-4.91
2023-01-29T16:46:46.584Z,-4.89
2023-01-29T16:49:28.437Z,-4.87
2023-01-29T16:51:56.584Z,-4.90
2023-01-29T16:54:26.271Z,-4.94
2023-01-29T16:56:53.142Z,-4.96
2023-01-29T16:59:37.931Z,-4.98
2023-01-29T17:02:04.504Z,-4.95
2023-01-29T17:04:30.994Z,-4.94
2023-01-29T17:06:58.533Z,-5.07
2023-01-29T17:09:27.544Z,-5.21
2023-01-29T17:11:56.025Z,-5.25
2023-01-29T17:14:23.034Z,-5.32
2023-01-29T17:16:50.550Z,-5.36
2023-01-29T17:19:18.277Z,-5.40
2023-01-29T17:21:44.984Z,-5.40
2023-01-29T17:24:11.547Z,-5.38
2023-01-29T17:26:38.165Z,-5.39
2023-01-29T17:29:04.685Z,-5.38
2023-01-29T17:31:31.236Z,-5.37
2023-01-29T17:33:57.758Z,-5.34
2023-01-29T17:36:24.241Z,-5.32
2023-01-29T17:38:50.749Z,-5.43
2023-01-29T17:41:27.312Z,-5.56
2023-01-29T17:43:53.809Z,-5.68
2023-01-29T17:46:20.421Z,-5.73
2023-01-29T17:48:46.940Z,-5.73
2023-01-29T17:51:15.096Z,-5.76
2023-01-29T17:53:45.856Z,-5.79
2023-01-29T17:56:17.097Z,-5.83
2023-01-29T17:58:43.781Z,-5.85
2023-01-29T18:01:10.239Z,-5.85
2023-01-29T18:03:36.951Z,-5.86
2023-01-29T18:06:03.632Z,-5.90
2023-01-29T18:08:31.113Z,-5.90
2023-01-29T18:10:57.571Z,-6.05
2023-01-29T18:13:24.031Z,-6.12
2023-01-29T18:15:50.750Z,-6.15
2023-01-29T18:18:20.918Z,-6.14
2023-01-29T18:20:47.400Z,-6.11
2023-01-29T18:23:13.932Z,-6.07
2023-01-29T18:25:40.569Z,-6.04
2023-01-29T18:28:07.048Z,-6.02
2023-01-29T18:30:33.646Z,-6.02
2023-01-29T18:33:00.262Z,-6.08
2023-01-29T18:35:27.190Z,-6.11
2023-01-29T18:37:53.667Z,-6.14
2023-01-29T18:40:20.205Z,-6.14
2023-01-29T18:42:46.894Z,-6.18
2023-01-29T18:45:13.493Z,-6.19
2023-01-29T18:47:40.010Z,-6.31
2023-01-29T18:50:06.736Z,-6.41
2023-01-29T18:52:34.329Z,-6.61
2023-01-29T18:55:03.918Z,-6.81
2023-01-29T18:58:26.896Z,-6.91
2023-01-29T19:00:17.162Z,-6.93
2023-01-29T19:02:44.840Z,-6.90
2023-01-29T19:05:11.310Z,-6.88
2023-01-29T19:07:37.888Z,-6.89
2023-01-29T19:10:06.872Z,-6.85
2023-01-29T19:12:34.427Z,-6.82
2023-01-29T19:15:01.078Z,-6.81
2023-01-29T19:17:27.779Z,-6.74
2023-01-29T19:19:56.529Z,-6.66
2023-01-29T19:22:23.002Z,-6.66
2023-01-29T19:24:49.587Z,-6.70
2023-01-29T19:27:16.050Z,-6.78
2023-01-29T19:29:42.679Z,-6.91
2023-01-29T19:32:10.046Z,-7.09
2023-01-29T19:34:36.892Z,-7.21
2023-01-29T19:37:03.727Z,-7.41
2023-01-29T19:39:33.821Z,-7.57
2023-01-29T19:42:01.090Z,-7.71
2023-01-29T19:44:27.761Z,-7.79
2023-01-29T19:46:54.283Z,-7.80
2023-01-29T19:49:20.760Z,-7.75
2023-01-29T19:51:47.442Z,-7.67
2023-01-29T19:54:13.950Z,-7.57
2023-01-29T19:56:40.525Z,-7.46
2023-01-29T19:59:07.539Z,-7.35
2023-01-29T20:01:34.054Z,-7.26
2023-01-29T20:04:00.548Z,-7.19
2023-01-29T20:06:27.579Z,-7.15
2023-01-29T20:08:54.144Z,-7.17
2023-01-29T20:11:21.136Z,-7.25
2023-01-29T20:13:50.237Z,-7.29
2023-01-29T20:16:17.336Z,-7.34
2023-01-29T20:18:43.986Z,-7.41
2023-01-29T20:21:11.250Z,-7.49
2023-01-29T20:23:38.947Z,-7.52
2023-01-29T20:26:09.213Z,-7.50
2023-01-29T20:28:36.291Z,-7.47
2023-01-29T20:31:03.251Z,-7.39
2023-01-29T20:33:30.071Z,-7.36
2023-01-29T20:35:57.084Z,-7.35
2023-01-29T20:38:32.186Z,-7.35
2023-01-29T20:41:12.968Z,-7.40
2023-01-29T20:43:42.219Z,-7.38
2023-01-29T20:46:17.162Z,-7.35
2023-01-29T20:48:43.696Z,-7.30
2023-01-29T20:51:13.070Z,-7.27
2023-01-29T20:53:41.128Z,-7.26
2023-01-29T20:56:08.125Z,-7.25
2023-01-29T20:58:35.319Z,-7.29
2023-01-29T21:01:02.070Z,-7.33
2023-01-29T21:03:28.782Z,-7.37
2023-01-29T21:05:57.617Z,-7.41
2023-01-29T21:08:24.178Z,-7.45
2023-01-29T21:11:04.999Z,-7.46
2023-01-29T21:17:06.631Z,-7.44
2023-01-29T21:19:33.129Z,-7.47
2023-01-29T21:21:59.593Z,-7.48
2023-01-29T21:24:26.353Z,-7.49
2023-01-29T21:26:53.095Z,-7.49
2023-01-29T21:29:19.912Z,-7.51
2023-01-29T21:31:46.484Z,-7.54
2023-01-29T21:34:13.051Z,-7.63
2023-01-29T21:36:41.753Z,-7.72
2023-01-29T21:39:17.473Z,-7.75
2023-01-29T21:42:02.912Z,-7.75
2023-01-29T21:44:29.472Z,-7.74
2023-01-29T21:46:55.994Z,-7.75
2023-01-29T21:49:22.755Z,-7.73
2023-01-29T21:52:12.285Z,-7.75
2023-01-29T21:58:01.773Z,-7.87
2023-01-29T22:00:30.007Z,-7.87
2023-01-29T22:02:57.691Z,-7.87
2023-01-29T22:05:27.185Z,-7.85
2023-01-29T22:07:54.605Z,-7.79
2023-01-29T22:13:50.604Z,-7.59
2023-01-29T22:16:17.893Z,-7.59
2023-01-29T22:18:45.126Z,-7.55
2023-01-29T22:21:12.213Z,-7.49
2023-01-29T22:23:39.482Z,-7.46
2023-01-29T22:26:06.454Z,-7.39
2023-01-29T22:28:33.226Z,-7.29
2023-01-29T22:31:03.363Z,-7.19
2023-01-29T22:33:30.060Z,-7.10
2023-01-29T22:35:56.938Z,-7.00
2023-01-29T22:38:23.972Z,-6.92
2023-01-29T22:40:51.197Z,-6.89
2023-01-29T22:43:17.855Z,-6.84
2023-01-29T22:45:44.809Z,-6.79
2023-01-29T22:48:11.940Z,-6.73
2023-01-29T22:50:38.944Z,-6.66
2023-01-29T22:53:05.694Z,-6.59
2023-01-29T22:55:32.295Z,-6.56
2023-01-29T22:57:58.796Z,-6.51
2023-01-29T23:00:25.475Z,-6.46
2023-01-29T23:02:52.057Z,-6.42
2023-01-29T23:05:18.617Z,-6.38
2023-01-29T23:07:45.270Z,-6.33
2023-01-29T23:10:13.250Z,-6.28
2023-01-29T23:12:39.763Z,-6.25
2023-01-29T23:15:06.645Z,-6.25
2023-01-29T23:17:33.183Z,-6.27
2023-01-29T23:19:59.847Z,-6.29
2023-01-29T23:22:26.435Z,-6.31
2023-01-29T23:24:53.205Z,-6.29
2023-01-29T23:27:20.172Z,-6.29
2023-01-29T23:29:47.456Z,-6.26
2023-01-29T23:32:20.210Z,-6.20
2023-01-29T23:34:48.097Z,-6.15
2023-01-29T23:37:14.839Z,-6.08
2023-01-29T23:39:42.937Z,-6.03
2023-01-29T23:42:12.736Z,-5.99
2023-01-29T23:44:43.432Z,-5.93
2023-01-29T23:47:13.277Z,-5.90
2023-01-29T23:49:39.804Z,-5.85
2023-01-29T23:52:07.048Z,-5.75
2023-01-29T23:54:41.188Z,-5.74
2023-01-29T23:57:21.145Z,-5.74
2023-01-29T23:59:55.946Z,-5.69
